PWSweather.com
Personal Weather Stations
Station Observations
BREAKEY01
Lévis, Breakeyville, QC G6z 7G7

LévisBreakeyville, QC G6z 7G7

Lat: 46.681, Lon: -71.224

Elevation: 328

Station Type: Davis Vantage Pro2

http://www.meteobreakey.com

Latest ConditionsUpdated 12:12:04 PM EDT Thursday, May 5, 2016
Currently Today's Max Today's Min Today's Average
Temperature 55.6°F13.1°C 55.6°F13.1°C 41.7°F5.4°C 45.5°F7.5°C
Dew Point 39.2°F4.0°C 42.1°F5.6°C 37.6°F3.1°C 39.6°F4.2°C
Winds 12.1 mph NE19.5 kmh NE 14.1 mph ENE22.7 kmh ENE - 7.3 mph 11.7 kmh
Wind Gusts 14.1 mph22.7 kmh 17.9 mph28.8 kmh - -
Humidity 54% 87% 54% 80%
Pressure 29.92 in1013.2 mb 29.94 in1013.9 mb 29.89 in1012.2 mb -
Hour Temp Dew Point Humidity Winds Wind Gusts Pressure Precip Precip Rate Daily Precip Total
12:12 PM 55.6°F13.1°C 39.2°F4.0°C 54% 12.1 mph NE19.5 kmh NE 14.1 mph22.7 kmh 29.92 in1013.2 mb - 0.00 in0.0 mm 0.00 in0.0 mm
12:07 PM 55.2°F12.9°C 39.7°F4.3°C 56% 14.1 mph ENE22.7 kmh ENE 13.0 mph20.9 kmh 29.92 in1013.2 mb - 0.00 in0.0 mm 0.00 in0.0 mm
12:02 PM 54.9°F12.7°C 39.4°F4.1°C 56% 12.1 mph NNE19.5 kmh NNE 12.1 mph19.5 kmh 29.92 in1013.2 mb - 0.00 in0.0 mm 0.00 in0.0 mm
11:57 AM 54.7°F12.6°C 40.3°F4.6°C 58% 8.9 mph NE14.3 kmh NE 16.1 mph25.9 kmh 29.93 in1013.5 mb - 0.00 in0.0 mm 0.00 in0.0 mm
11:52 AM 54.3°F12.4°C 40.3°F4.6°C 59% 8.9 mph NE14.3 kmh NE 4.9 mph7.9 kmh 29.93 in1013.5 mb - 0.00 in0.0 mm 0.00 in0.0 mm
11:47 AM 54.1°F12.3°C 41.0°F5.0°C 61% 10.1 mph NE16.3 kmh NE 4.0 mph6.4 kmh 29.93 in1013.5 mb - 0.00 in0.0 mm 0.00 in0.0 mm
11:42 AM 54.1°F12.3°C 40.6°F4.8°C 60% 10.1 mph E16.3 kmh E 6.9 mph11.1 kmh 29.93 in1013.5 mb - 0.00 in0.0 mm 0.00 in0.0 mm
11:37 AM 54.0°F12.2°C 41.2°F5.1°C 62% 10.1 mph NE16.3 kmh NE 10.1 mph16.3 kmh 29.93 in1013.5 mb - 0.00 in0.0 mm 0.00 in0.0 mm
11:32 AM 53.6°F12.0°C 40.5°F4.7°C 61% 10.1 mph NE16.3 kmh NE 10.1 mph16.3 kmh 29.93 in1013.5 mb - 0.00 in0.0 mm 0.00 in0.0 mm
11:27 AM 53.8°F12.1°C 40.6°F4.8°C 61% 10.1 mph ENE16.3 kmh ENE 8.9 mph14.3 kmh 29.93 in1013.5 mb - 0.00 in0.0 mm 0.00 in0.0 mm
11:22 AM 53.4°F11.9°C 41.2°F5.1°C 63% 10.1 mph ENE16.3 kmh ENE 2.9 mph4.7 kmh 29.93 in1013.5 mb - 0.00 in0.0 mm 0.00 in0.0 mm
11:17 AM 53.4°F11.9°C 41.2°F5.1°C 63% 10.1 mph ESE16.3 kmh ESE 6.9 mph11.1 kmh 29.93 in1013.5 mb - 0.00 in0.0 mm 0.00 in0.0 mm
11:12 AM 53.6°F12.0°C 41.4°F5.2°C 63% 8.9 mph NE14.3 kmh NE 14.1 mph22.7 kmh 29.93 in1013.5 mb - 0.00 in0.0 mm 0.00 in0.0 mm
11:07 AM 53.1°F11.7°C 41.2°F5.1°C 64% 10.1 mph E16.3 kmh E 4.0 mph6.4 kmh 29.93 in1013.5 mb - 0.00 in0.0 mm 0.00 in0.0 mm
11:02 AM 52.5°F11.4°C 40.3°F4.6°C 63% 11.0 mph ENE17.7 kmh ENE 6.0 mph9.7 kmh 29.94 in1013.9 mb - 0.00 in0.0 mm 0.00 in0.0 mm
10:57 AM 52.3°F11.3°C 41.7°F5.4°C 67% 10.1 mph NE16.3 kmh NE 2.9 mph4.7 kmh 29.94 in1013.9 mb - 0.00 in0.0 mm 0.00 in0.0 mm
10:52 AM 51.8°F11.0°C 40.5°F4.7°C 65% 11.0 mph ENE17.7 kmh ENE 8.9 mph14.3 kmh 29.94 in1013.9 mb - 0.00 in0.0 mm 0.00 in0.0 mm
10:47 AM 52.0°F11.1°C 41.0°F5.0°C 66% 10.1 mph E16.3 kmh E 8.9 mph14.3 kmh 29.94 in1013.9 mb - 0.00 in0.0 mm 0.00 in0.0 mm
10:42 AM 52.0°F11.1°C 41.7°F5.4°C 68% 12.1 mph NE19.5 kmh NE 8.9 mph14.3 kmh 29.94 in1013.9 mb - 0.00 in0.0 mm 0.00 in0.0 mm
10:37 AM 51.4°F10.8°C 40.5°F4.7°C 66% 12.1 mph E19.5 kmh E 14.1 mph22.7 kmh 29.94 in1013.9 mb - 0.00 in0.0 mm 0.00 in0.0 mm
10:32 AM 51.4°F10.8°C 41.2°F5.1°C 68% 11.0 mph E17.7 kmh E 14.1 mph22.7 kmh 29.94 in1013.9 mb - 0.00 in0.0 mm 0.00 in0.0 mm
10:27 AM 51.4°F10.8°C 41.2°F5.1°C 68% 11.0 mph ENE17.7 kmh ENE 6.0 mph9.7 kmh 29.94 in1013.9 mb - 0.00 in0.0 mm 0.00 in0.0 mm
10:22 AM 51.4°F10.8°C 41.2°F5.1°C 68% 8.9 mph NE14.3 kmh NE 14.1 mph22.7 kmh 29.94 in1013.9 mb - 0.00 in0.0 mm 0.00 in0.0 mm
10:17 AM 51.3°F10.7°C 41.4°F5.2°C 69% 8.9 mph ENE14.3 kmh ENE 15.0 mph24.1 kmh 29.94 in1013.9 mb - 0.00 in0.0 mm 0.00 in0.0 mm
10:12 AM 50.5°F10.3°C 41.2°F5.1°C 70% 11.0 mph NE17.7 kmh NE 6.9 mph11.1 kmh 29.94 in1013.9 mb - 0.00 in0.0 mm 0.00 in0.0 mm
10:07 AM 50.4°F10.2°C 40.6°F4.8°C 69% 12.1 mph ENE19.5 kmh ENE 12.1 mph19.5 kmh 29.94 in1013.9 mb - 0.00 in0.0 mm 0.00 in0.0 mm
10:02 AM 50.5°F10.3°C 41.2°F5.1°C 70% 12.1 mph E19.5 kmh E 17.9 mph28.8 kmh 29.94 in1013.9 mb - 0.00 in0.0 mm 0.00 in0.0 mm
09:57 AM 50.2°F10.1°C 41.2°F5.1°C 71% 11.0 mph NE17.7 kmh NE 13.0 mph20.9 kmh 29.94 in1013.9 mb - 0.00 in0.0 mm 0.00 in0.0 mm
09:52 AM 50.0°F10.0°C 41.0°F5.0°C 71% 10.1 mph ENE16.3 kmh ENE 8.1 mph13.0 kmh 29.94 in1013.9 mb - 0.00 in0.0 mm 0.00 in0.0 mm
09:47 AM 50.4°F10.2°C 41.4°F5.2°C 71% 10.1 mph E16.3 kmh E 6.9 mph11.1 kmh 29.94 in1013.9 mb - 0.00 in0.0 mm 0.00 in0.0 mm
09:42 AM 49.8°F9.9°C 41.9°F5.5°C 74% 10.1 mph NNE16.3 kmh NNE 8.1 mph13.0 kmh 29.94 in1013.9 mb - 0.00 in0.0 mm 0.00 in0.0 mm
09:37 AM 49.6°F9.8°C 41.4°F5.2°C 73% 8.9 mph NE14.3 kmh NE 6.0 mph9.7 kmh 29.94 in1013.9 mb - 0.00 in0.0 mm 0.00 in0.0 mm
09:32 AM 49.8°F9.9°C 41.9°F5.5°C 74% 8.1 mph NE13.0 kmh NE 6.9 mph11.1 kmh 29.94 in1013.9 mb - 0.00 in0.0 mm 0.00 in0.0 mm
09:27 AM 49.5°F9.7°C 41.9°F5.5°C 75% 8.9 mph E14.3 kmh E 8.9 mph14.3 kmh 29.94 in1013.9 mb - 0.00 in0.0 mm 0.00 in0.0 mm
09:22 AM 48.6°F9.2°C 42.1°F5.6°C 78% 8.1 mph NE13.0 kmh NE 8.1 mph13.0 kmh 29.93 in1013.5 mb - 0.00 in0.0 mm 0.00 in0.0 mm
09:17 AM 47.7°F8.7°C 41.5°F5.3°C 79% 8.9 mph NE14.3 kmh NE 8.9 mph14.3 kmh 29.94 in1013.9 mb - 0.00 in0.0 mm 0.00 in0.0 mm
09:12 AM 46.9°F8.3°C 41.2°F5.1°C 80% 10.1 mph E16.3 kmh E 11.0 mph17.7 kmh 29.93 in1013.5 mb - 0.00 in0.0 mm 0.00 in0.0 mm
09:07 AM 46.6°F8.1°C 41.0°F5.0°C 81% 8.1 mph NE13.0 kmh NE 11.0 mph17.7 kmh 29.93 in1013.5 mb - 0.00 in0.0 mm 0.00 in0.0 mm
09:02 AM 46.2°F7.9°C 41.0°F5.0°C 82% 8.9 mph E14.3 kmh E 10.1 mph16.3 kmh 29.94 in1013.9 mb - 0.00 in0.0 mm 0.00 in0.0 mm
08:57 AM 46.0°F7.8°C 40.8°F4.9°C 82% 8.9 mph NE14.3 kmh NE 8.9 mph14.3 kmh 29.94 in1013.9 mb - 0.00 in0.0 mm 0.00 in0.0 mm
08:52 AM 46.0°F7.8°C 40.8°F4.9°C 82% 6.9 mph E11.1 kmh E 6.9 mph11.1 kmh 29.94 in1013.9 mb - 0.00 in0.0 mm 0.00 in0.0 mm
08:47 AM 46.2°F7.9°C 41.0°F5.0°C 82% 8.9 mph E14.3 kmh E 11.0 mph17.7 kmh 29.94 in1013.9 mb - 0.00 in0.0 mm 0.00 in0.0 mm
08:42 AM 46.2°F7.9°C 40.6°F4.8°C 81% 8.9 mph NE14.3 kmh NE 8.9 mph14.3 kmh 29.93 in1013.5 mb - 0.00 in0.0 mm 0.00 in0.0 mm
08:37 AM 46.0°F7.8°C 40.5°F4.7°C 81% 8.9 mph NE14.3 kmh NE 11.0 mph17.7 kmh 29.93 in1013.5 mb - 0.00 in0.0 mm 0.00 in0.0 mm
08:32 AM 46.2°F7.9°C 40.6°F4.8°C 81% 8.9 mph NNE14.3 kmh NNE 4.9 mph7.9 kmh 29.93 in1013.5 mb - 0.00 in0.0 mm 0.00 in0.0 mm
08:27 AM 46.6°F8.1°C 40.8°F4.9°C 80% 8.9 mph E14.3 kmh E 10.1 mph16.3 kmh 29.93 in1013.5 mb - 0.00 in0.0 mm 0.00 in0.0 mm
08:22 AM 46.6°F8.1°C 41.0°F5.0°C 81% 8.9 mph E14.3 kmh E 11.0 mph17.7 kmh 29.93 in1013.5 mb - 0.00 in0.0 mm 0.00 in0.0 mm
08:17 AM 46.2°F7.9°C 41.0°F5.0°C 82% 10.1 mph E16.3 kmh E 6.9 mph11.1 kmh 29.93 in1013.5 mb - 0.00 in0.0 mm 0.00 in0.0 mm
08:12 AM 46.2°F7.9°C 41.0°F5.0°C 82% 8.9 mph NE14.3 kmh NE 6.9 mph11.1 kmh 29.94 in1013.9 mb - 0.00 in0.0 mm 0.00 in0.0 mm
08:07 AM 46.0°F7.8°C 41.2°F5.1°C 83% 8.9 mph NE14.3 kmh NE 12.1 mph19.5 kmh 29.93 in1013.5 mb - 0.00 in0.0 mm 0.00 in0.0 mm
08:02 AM 45.7°F7.6°C 40.8°F4.9°C 83% 10.1 mph ENE16.3 kmh ENE 11.0 mph17.7 kmh 29.93 in1013.5 mb - 0.00 in0.0 mm 0.00 in0.0 mm
07:57 AM 45.7°F7.6°C 41.2°F5.1°C 84% 10.1 mph E16.3 kmh E 10.1 mph16.3 kmh 29.93 in1013.5 mb - 0.00 in0.0 mm 0.00 in0.0 mm
07:52 AM 45.3°F7.4°C 40.8°F4.9°C 84% 10.1 mph NE16.3 kmh NE 8.9 mph14.3 kmh 29.93 in1013.5 mb - 0.00 in0.0 mm 0.00 in0.0 mm
07:47 AM 45.1°F7.3°C 40.6°F4.8°C 84% 8.9 mph ENE14.3 kmh ENE 10.1 mph16.3 kmh 29.93 in1013.5 mb - 0.00 in0.0 mm 0.00 in0.0 mm
07:42 AM 45.1°F7.3°C 40.6°F4.8°C 84% 8.1 mph E13.0 kmh E 8.1 mph13.0 kmh 29.93 in1013.5 mb - 0.00 in0.0 mm 0.00 in0.0 mm
07:37 AM 45.0°F7.2°C 40.5°F4.7°C 84% 8.1 mph NE13.0 kmh NE 10.1 mph16.3 kmh 29.93 in1013.5 mb - 0.00 in0.0 mm 0.00 in0.0 mm
07:32 AM 45.0°F7.2°C 40.5°F4.7°C 84% 8.1 mph NE13.0 kmh NE 10.1 mph16.3 kmh 29.93 in1013.5 mb - 0.00 in0.0 mm 0.00 in0.0 mm
07:27 AM 44.8°F7.1°C 40.3°F4.6°C 84% 8.1 mph E13.0 kmh E 4.0 mph6.4 kmh 29.94 in1013.9 mb - 0.00 in0.0 mm 0.00 in0.0 mm
07:22 AM 44.6°F7.0°C 39.7°F4.3°C 83% 8.1 mph ENE13.0 kmh ENE 8.1 mph13.0 kmh 29.94 in1013.9 mb - 0.00 in0.0 mm 0.00 in0.0 mm
07:17 AM 44.6°F7.0°C 39.7°F4.3°C 83% 6.9 mph E11.1 kmh E 11.0 mph17.7 kmh 29.93 in1013.5 mb - 0.00 in0.0 mm 0.00 in0.0 mm
07:12 AM 44.4°F6.9°C 39.6°F4.2°C 83% 8.1 mph ENE13.0 kmh ENE 6.0 mph9.7 kmh 29.92 in1013.2 mb - 0.00 in0.0 mm 0.00 in0.0 mm
07:07 AM 44.4°F6.9°C 39.6°F4.2°C 83% 8.1 mph NE13.0 kmh NE 6.9 mph11.1 kmh 29.92 in1013.2 mb - 0.00 in0.0 mm 0.00 in0.0 mm
07:02 AM 44.2°F6.8°C 39.7°F4.3°C 84% 8.1 mph E13.0 kmh E 2.9 mph4.7 kmh 29.93 in1013.5 mb - 0.00 in0.0 mm 0.00 in0.0 mm
06:57 AM 44.1°F6.7°C 39.6°F4.2°C 84% 8.1 mph E13.0 kmh E 4.0 mph6.4 kmh 29.92 in1013.2 mb - 0.00 in0.0 mm 0.00 in0.0 mm
06:52 AM 44.1°F6.7°C 39.9°F4.4°C 85% 6.9 mph ENE11.1 kmh ENE 11.0 mph17.7 kmh 29.92 in1013.2 mb - 0.00 in0.0 mm 0.00 in0.0 mm
06:47 AM 43.9°F6.6°C 39.7°F4.3°C 85% 8.1 mph E13.0 kmh E 6.0 mph9.7 kmh 29.93 in1013.5 mb - 0.00 in0.0 mm 0.00 in0.0 mm
06:42 AM 43.9°F6.6°C 39.7°F4.3°C 85% 6.9 mph E11.1 kmh E 4.9 mph7.9 kmh 29.93 in1013.5 mb - 0.00 in0.0 mm 0.00 in0.0 mm
06:37 AM 43.7°F6.5°C 39.7°F4.3°C 86% 6.0 mph E9.7 kmh E 11.0 mph17.7 kmh 29.93 in1013.5 mb - 0.00 in0.0 mm 0.00 in0.0 mm
06:32 AM 43.5°F6.4°C 39.6°F4.2°C 86% 6.9 mph ENE11.1 kmh ENE 8.1 mph13.0 kmh 29.92 in1013.2 mb - 0.00 in0.0 mm 0.00 in0.0 mm
06:27 AM 43.3°F6.3°C 39.4°F4.1°C 86% 6.9 mph E11.1 kmh E 8.1 mph13.0 kmh 29.92 in1013.2 mb - 0.00 in0.0 mm 0.00 in0.0 mm
06:22 AM 43.3°F6.3°C 39.4°F4.1°C 86% 6.9 mph NE11.1 kmh NE 4.0 mph6.4 kmh 29.92 in1013.2 mb - 0.00 in0.0 mm 0.00 in0.0 mm
06:17 AM 43.2°F6.2°C 39.6°F4.2°C 87% 6.0 mph E9.7 kmh E 10.1 mph16.3 kmh 29.92 in1013.2 mb - 0.00 in0.0 mm 0.00 in0.0 mm
06:12 AM 43.2°F6.2°C 39.6°F4.2°C 87% 6.0 mph ENE9.7 kmh ENE 11.0 mph17.7 kmh 29.92 in1013.2 mb - 0.00 in0.0 mm 0.00 in0.0 mm
06:07 AM 43.0°F6.1°C 39.4°F4.1°C 87% 6.0 mph E9.7 kmh E 2.0 mph3.2 kmh 29.91 in1012.9 mb - 0.00 in0.0 mm 0.00 in0.0 mm
06:02 AM 42.8°F6.0°C 39.2°F4.0°C 87% 4.9 mph E7.9 kmh E 4.9 mph7.9 kmh 29.91 in1012.9 mb - 0.00 in0.0 mm 0.00 in0.0 mm
05:57 AM 42.8°F6.0°C 39.2°F4.0°C 87% 6.0 mph E9.7 kmh E 6.9 mph11.1 kmh 29.91 in1012.9 mb - 0.00 in0.0 mm 0.00 in0.0 mm
05:52 AM 42.6°F5.9°C 39.0°F3.9°C 87% 4.9 mph ENE7.9 kmh ENE 4.0 mph6.4 kmh 29.91 in1012.9 mb - 0.00 in0.0 mm 0.00 in0.0 mm
05:47 AM 42.6°F5.9°C 39.0°F3.9°C 87% 4.9 mph ENE7.9 kmh ENE 2.0 mph3.2 kmh 29.91 in1012.9 mb - 0.00 in0.0 mm 0.00 in0.0 mm
05:42 AM 42.6°F5.9°C 39.0°F3.9°C 87% 4.9 mph E7.9 kmh E 8.1 mph13.0 kmh 29.91 in1012.9 mb - 0.00 in0.0 mm 0.00 in0.0 mm
05:37 AM 42.6°F5.9°C 39.0°F3.9°C 87% 6.0 mph ENE9.7 kmh ENE 4.0 mph6.4 kmh 29.91 in1012.9 mb - 0.00 in0.0 mm 0.00 in0.0 mm
05:32 AM 42.6°F5.9°C 39.0°F3.9°C 87% 6.0 mph E9.7 kmh E 8.1 mph13.0 kmh 29.91 in1012.9 mb - 0.00 in0.0 mm 0.00 in0.0 mm
05:27 AM 42.8°F6.0°C 38.8°F3.8°C 86% 4.9 mph E7.9 kmh E 6.9 mph11.1 kmh 29.91 in1012.9 mb - 0.00 in0.0 mm 0.00 in0.0 mm
05:22 AM 42.8°F6.0°C 38.8°F3.8°C 86% 6.0 mph E9.7 kmh E 6.0 mph9.7 kmh 29.91 in1012.9 mb - 0.00 in0.0 mm 0.00 in0.0 mm
05:17 AM 42.8°F6.0°C 38.8°F3.8°C 86% 4.9 mph ENE7.9 kmh ENE 4.9 mph7.9 kmh 29.90 in1012.5 mb - 0.00 in0.0 mm 0.00 in0.0 mm
05:12 AM 43.0°F6.1°C 39.0°F3.9°C 86% 4.9 mph ENE7.9 kmh ENE 11.0 mph17.7 kmh 29.90 in1012.5 mb - 0.00 in0.0 mm 0.00 in0.0 mm
05:07 AM 43.0°F6.1°C 38.8°F3.8°C 85% 4.9 mph NE7.9 kmh NE 4.9 mph7.9 kmh 29.90 in1012.5 mb - 0.00 in0.0 mm 0.00 in0.0 mm
05:02 AM 43.0°F6.1°C 38.8°F3.8°C 85% 6.0 mph ENE9.7 kmh ENE 4.9 mph7.9 kmh 29.90 in1012.5 mb - 0.00 in0.0 mm 0.00 in0.0 mm
04:57 AM 43.0°F6.1°C 38.8°F3.8°C 85% 6.0 mph ENE9.7 kmh ENE 2.9 mph4.7 kmh 29.90 in1012.5 mb - 0.00 in0.0 mm 0.00 in0.0 mm
04:52 AM 43.0°F6.1°C 38.8°F3.8°C 85% 6.9 mph ENE11.1 kmh ENE 10.1 mph16.3 kmh 29.90 in1012.5 mb - 0.00 in0.0 mm 0.00 in0.0 mm
04:47 AM 43.0°F6.1°C 38.8°F3.8°C 85% 6.9 mph E11.1 kmh E 8.9 mph14.3 kmh 29.90 in1012.5 mb - 0.00 in0.0 mm 0.00 in0.0 mm
04:42 AM 43.0°F6.1°C 38.8°F3.8°C 85% 6.0 mph E9.7 kmh E 4.0 mph6.4 kmh 29.90 in1012.5 mb - 0.00 in0.0 mm 0.00 in0.0 mm
04:37 AM 43.0°F6.1°C 38.8°F3.8°C 85% 6.0 mph E9.7 kmh E 6.9 mph11.1 kmh 29.90 in1012.5 mb - 0.00 in0.0 mm 0.00 in0.0 mm
04:32 AM 43.0°F6.1°C 38.8°F3.8°C 85% 6.0 mph E9.7 kmh E 8.1 mph13.0 kmh 29.90 in1012.5 mb - 0.00 in0.0 mm 0.00 in0.0 mm
04:27 AM 43.0°F6.1°C 39.0°F3.9°C 86% 6.0 mph E9.7 kmh E 4.9 mph7.9 kmh 29.90 in1012.5 mb - 0.00 in0.0 mm 0.00 in0.0 mm
04:22 AM 43.0°F6.1°C 39.0°F3.9°C 86% 6.0 mph E9.7 kmh E 2.9 mph4.7 kmh 29.90 in1012.5 mb - 0.00 in0.0 mm 0.00 in0.0 mm
04:17 AM 43.0°F6.1°C 39.0°F3.9°C 86% 6.0 mph ENE9.7 kmh ENE 4.0 mph6.4 kmh 29.90 in1012.5 mb - 0.00 in0.0 mm 0.00 in0.0 mm
04:12 AM 42.8°F6.0°C 38.8°F3.8°C 86% 6.0 mph E9.7 kmh E 4.0 mph6.4 kmh 29.90 in1012.5 mb - 0.00 in0.0 mm 0.00 in0.0 mm
04:07 AM 42.8°F6.0°C 38.8°F3.8°C 86% 6.0 mph NE9.7 kmh NE 4.0 mph6.4 kmh 29.90 in1012.5 mb - 0.00 in0.0 mm 0.00 in0.0 mm
04:02 AM 42.6°F5.9°C 38.7°F3.7°C 86% 4.9 mph E7.9 kmh E 8.1 mph13.0 kmh 29.89 in1012.2 mb - 0.00 in0.0 mm 0.00 in0.0 mm
03:57 AM 42.6°F5.9°C 38.7°F3.7°C 86% 4.0 mph E6.4 kmh E 2.0 mph3.2 kmh 29.90 in1012.5 mb - 0.00 in0.0 mm 0.00 in0.0 mm
03:52 AM 42.6°F5.9°C 38.5°F3.6°C 85% 4.0 mph ENE6.4 kmh ENE 4.0 mph6.4 kmh 29.90 in1012.5 mb - 0.00 in0.0 mm 0.00 in0.0 mm
03:47 AM 42.6°F5.9°C 38.5°F3.6°C 85% 4.9 mph E7.9 kmh E 4.9 mph7.9 kmh 29.89 in1012.2 mb - 0.00 in0.0 mm 0.00 in0.0 mm
03:42 AM 42.6°F5.9°C 38.5°F3.6°C 85% 4.0 mph ENE6.4 kmh ENE 2.9 mph4.7 kmh 29.89 in1012.2 mb - 0.00 in0.0 mm 0.00 in0.0 mm
03:37 AM 42.6°F5.9°C 38.5°F3.6°C 85% 4.9 mph E7.9 kmh E 2.9 mph4.7 kmh 29.89 in1012.2 mb - 0.00 in0.0 mm 0.00 in0.0 mm
03:32 AM 42.6°F5.9°C 38.5°F3.6°C 85% 6.0 mph ENE9.7 kmh ENE 2.9 mph4.7 kmh 29.89 in1012.2 mb - 0.00 in0.0 mm 0.00 in0.0 mm
03:27 AM 42.6°F5.9°C 38.5°F3.6°C 85% 6.0 mph E9.7 kmh E 6.9 mph11.1 kmh 29.90 in1012.5 mb - 0.00 in0.0 mm 0.00 in0.0 mm
03:22 AM 42.4°F5.8°C 38.3°F3.5°C 85% 6.0 mph ESE9.7 kmh ESE 8.1 mph13.0 kmh 29.90 in1012.5 mb - 0.00 in0.0 mm 0.00 in0.0 mm
03:17 AM 42.4°F5.8°C 37.9°F3.3°C 84% 6.0 mph ENE9.7 kmh ENE 10.1 mph16.3 kmh 29.90 in1012.5 mb - 0.00 in0.0 mm 0.00 in0.0 mm
03:12 AM 42.4°F5.8°C 37.9°F3.3°C 84% 4.9 mph ENE7.9 kmh ENE 4.0 mph6.4 kmh 29.90 in1012.5 mb - 0.00 in0.0 mm 0.00 in0.0 mm
03:07 AM 42.3°F5.7°C 37.8°F3.2°C 84% 4.9 mph E7.9 kmh E 2.9 mph4.7 kmh 29.90 in1012.5 mb - 0.00 in0.0 mm 0.00 in0.0 mm
03:02 AM 42.3°F5.7°C 37.8°F3.2°C 84% 4.0 mph ESE6.4 kmh ESE 4.0 mph6.4 kmh 29.90 in1012.5 mb - 0.00 in0.0 mm 0.00 in0.0 mm
02:57 AM 42.3°F5.7°C 37.8°F3.2°C 84% 4.0 mph ENE6.4 kmh ENE 2.9 mph4.7 kmh 29.90 in1012.5 mb - 0.00 in0.0 mm 0.00 in0.0 mm
02:52 AM 42.3°F5.7°C 37.8°F3.2°C 84% 4.0 mph E6.4 kmh E 4.0 mph6.4 kmh 29.90 in1012.5 mb - 0.00 in0.0 mm 0.00 in0.0 mm
02:47 AM 42.3°F5.7°C 37.8°F3.2°C 84% 4.9 mph ENE7.9 kmh ENE 2.0 mph3.2 kmh 29.90 in1012.5 mb - 0.00 in0.0 mm 0.00 in0.0 mm
02:42 AM 42.3°F5.7°C 37.8°F3.2°C 84% 6.9 mph E11.1 kmh E 6.0 mph9.7 kmh 29.90 in1012.5 mb - 0.00 in0.0 mm 0.00 in0.0 mm
02:37 AM 42.3°F5.7°C 37.8°F3.2°C 84% 6.9 mph E11.1 kmh E 8.1 mph13.0 kmh 29.90 in1012.5 mb - 0.00 in0.0 mm 0.00 in0.0 mm
02:32 AM 42.3°F5.7°C 37.8°F3.2°C 84% 6.9 mph E11.1 kmh E 8.1 mph13.0 kmh 29.91 in1012.9 mb - 0.00 in0.0 mm 0.00 in0.0 mm
02:27 AM 42.1°F5.6°C 37.9°F3.3°C 85% 6.0 mph E9.7 kmh E 6.9 mph11.1 kmh 29.91 in1012.9 mb - 0.00 in0.0 mm 0.00 in0.0 mm
02:22 AM 41.9°F5.5°C 37.8°F3.2°C 85% 4.9 mph ENE7.9 kmh ENE 4.0 mph6.4 kmh 29.90 in1012.5 mb - 0.00 in0.0 mm 0.00 in0.0 mm
02:17 AM 41.7°F5.4°C 37.6°F3.1°C 85% 4.0 mph E6.4 kmh E 4.0 mph6.4 kmh 29.90 in1012.5 mb - 0.00 in0.0 mm 0.00 in0.0 mm
02:12 AM 41.7°F5.4°C 37.6°F3.1°C 85% 4.0 mph SE6.4 kmh SE 8.1 mph13.0 kmh 29.91 in1012.9 mb - 0.00 in0.0 mm 0.00 in0.0 mm
02:07 AM 41.7°F5.4°C 37.6°F3.1°C 85% 4.9 mph E7.9 kmh E 4.0 mph6.4 kmh 29.91 in1012.9 mb - 0.00 in0.0 mm 0.00 in0.0 mm
02:02 AM 41.7°F5.4°C 37.6°F3.1°C 85% 4.9 mph ESE7.9 kmh ESE 4.0 mph6.4 kmh 29.91 in1012.9 mb - 0.00 in0.0 mm 0.00 in0.0 mm
01:57 AM 41.7°F5.4°C 37.6°F3.1°C 85% 4.9 mph E7.9 kmh E 6.9 mph11.1 kmh 29.91 in1012.9 mb - 0.00 in0.0 mm 0.00 in0.0 mm
01:52 AM 41.7°F5.4°C 37.6°F3.1°C 85% 4.9 mph E7.9 kmh E 6.9 mph11.1 kmh 29.91 in1012.9 mb - 0.00 in0.0 mm 0.00 in0.0 mm
01:47 AM 41.9°F5.5°C 37.8°F3.2°C 85% 4.9 mph E7.9 kmh E 4.0 mph6.4 kmh 29.91 in1012.9 mb - 0.00 in0.0 mm 0.00 in0.0 mm
01:42 AM 41.9°F5.5°C 37.8°F3.2°C 85% 4.9 mph E7.9 kmh E 4.9 mph7.9 kmh 29.90 in1012.5 mb - 0.00 in0.0 mm 0.00 in0.0 mm
01:37 AM 41.9°F5.5°C 37.8°F3.2°C 85% 4.0 mph ENE6.4 kmh ENE 6.0 mph9.7 kmh 29.90 in1012.5 mb - 0.00 in0.0 mm 0.00 in0.0 mm
01:32 AM 42.1°F5.6°C 37.9°F3.3°C 85% 4.0 mph E6.4 kmh E 0.9 mph1.4 kmh 29.90 in1012.5 mb - 0.00 in0.0 mm 0.00 in0.0 mm
01:27 AM 42.3°F5.7°C 38.1°F3.4°C 85% 4.9 mph ESE7.9 kmh ESE 4.9 mph7.9 kmh 29.90 in1012.5 mb - 0.00 in0.0 mm 0.00 in0.0 mm
01:22 AM 42.3°F5.7°C 37.8°F3.2°C 84% 4.9 mph ESE7.9 kmh ESE 8.1 mph13.0 kmh 29.90 in1012.5 mb - 0.00 in0.0 mm 0.00 in0.0 mm
01:17 AM 42.4°F5.8°C 38.3°F3.5°C 85% 4.9 mph ESE7.9 kmh ESE 6.0 mph9.7 kmh 29.90 in1012.5 mb - 0.00 in0.0 mm 0.00 in0.0 mm
01:12 AM 42.4°F5.8°C 38.3°F3.5°C 85% 6.9 mph ESE11.1 kmh ESE 6.0 mph9.7 kmh 29.90 in1012.5 mb - 0.00 in0.0 mm 0.00 in0.0 mm
01:07 AM 42.4°F5.8°C 38.3°F3.5°C 85% 6.9 mph ENE11.1 kmh ENE 8.9 mph14.3 kmh 29.90 in1012.5 mb - 0.00 in0.0 mm 0.00 in0.0 mm
01:02 AM 42.4°F5.8°C 38.5°F3.6°C 86% 4.9 mph E7.9 kmh E 8.1 mph13.0 kmh 29.90 in1012.5 mb - 0.00 in0.0 mm 0.00 in0.0 mm
12:57 AM 42.6°F5.9°C 38.5°F3.6°C 85% 4.9 mph E7.9 kmh E 2.9 mph4.7 kmh 29.90 in1012.5 mb - 0.00 in0.0 mm 0.00 in0.0 mm
12:52 AM 42.6°F5.9°C 38.5°F3.6°C 85% 4.9 mph E7.9 kmh E 4.9 mph7.9 kmh 29.90 in1012.5 mb - 0.00 in0.0 mm 0.00 in0.0 mm
12:47 AM 43.0°F6.1°C 38.8°F3.8°C 85% 4.9 mph E7.9 kmh E 4.0 mph6.4 kmh 29.91 in1012.9 mb - 0.00 in0.0 mm 0.00 in0.0 mm
12:42 AM 43.2°F6.2°C 39.0°F3.9°C 85% 6.0 mph E9.7 kmh E 2.9 mph4.7 kmh 29.91 in1012.9 mb - 0.00 in0.0 mm 0.00 in0.0 mm
12:37 AM 43.3°F6.3°C 39.2°F4.0°C 85% 6.9 mph E11.1 kmh E 4.0 mph6.4 kmh 29.91 in1012.9 mb - 0.00 in0.0 mm 0.00 in0.0 mm
12:32 AM 43.3°F6.3°C 39.2°F4.0°C 85% 6.9 mph E11.1 kmh E 8.1 mph13.0 kmh 29.91 in1012.9 mb - 0.00 in0.0 mm 0.00 in0.0 mm
12:27 AM 43.3°F6.3°C 39.2°F4.0°C 85% 6.0 mph ENE9.7 kmh ENE 8.1 mph13.0 kmh 29.91 in1012.9 mb - 0.00 in0.0 mm 0.00 in0.0 mm
12:22 AM 43.5°F6.4°C 39.4°F4.1°C 85% 6.0 mph E9.7 kmh E 4.9 mph7.9 kmh 29.91 in1012.9 mb - 0.00 in0.0 mm 0.00 in0.0 mm
12:17 AM 43.5°F6.4°C 39.4°F4.1°C 85% 6.9 mph E11.1 kmh E 6.9 mph11.1 kmh 29.91 in1012.9 mb - 0.00 in0.0 mm 0.00 in0.0 mm
12:12 AM 43.7°F6.5°C 39.6°F4.2°C 85% 6.9 mph ENE11.1 kmh ENE 8.1 mph13.0 kmh 29.91 in1012.9 mb - 0.00 in0.0 mm 0.00 in0.0 mm
12:07 AM 43.7°F6.5°C 39.6°F4.2°C 85% 6.9 mph E11.1 kmh E 4.0 mph6.4 kmh 29.92 in1013.2 mb - 0.00 in0.0 mm 0.00 in0.0 mm
12:02 AM 43.9°F6.6°C 39.7°F4.3°C 85% 6.0 mph ENE9.7 kmh ENE 4.9 mph7.9 kmh 29.92 in1013.2 mb - 0.00 in0.0 mm 0.00 in0.0 mm